sensor_id;sensor_type;location;lat;lon;timestamp;P1;durP1;ratioP1;P2;durP2;ratioP2
16998;SDS011;10211;49.476;11.010;2023-05-14T00:00:22;9.47;;;8.47;;
16998;SDS011;10211;49.476;11.010;2023-05-14T00:02:49;11.80;;;8.13;;
16998;SDS011;10211;49.476;11.010;2023-05-14T00:05:17;10.20;;;7.57;;
16998;SDS011;10211;49.476;11.010;2023-05-14T00:07:44;9.83;;;7.07;;
16998;SDS011;10211;49.476;11.010;2023-05-14T00:10:10;8.17;;;7.37;;
16998;SDS011;10211;49.476;11.010;2023-05-14T00:12:37;9.70;;;7.33;;
16998;SDS011;10211;49.476;11.010;2023-05-14T00:15:04;9.63;;;6.90;;
16998;SDS011;10211;49.476;11.010;2023-05-14T00:17:32;10.87;;;7.20;;
16998;SDS011;10211;49.476;11.010;2023-05-14T00:19:58;8.20;;;7.33;;
16998;SDS011;10211;49.476;11.010;2023-05-14T00:22:26;9.80;;;7.77;;
16998;SDS011;10211;49.476;11.010;2023-05-14T00:24:53;8.43;;;6.93;;
16998;SDS011;10211;49.476;11.010;2023-05-14T00:27:20;11.43;;;7.90;;
16998;SDS011;10211;49.476;11.010;2023-05-14T00:29:46;11.63;;;7.33;;
16998;SDS011;10211;49.476;11.010;2023-05-14T00:32:13;10.67;;;8.03;;
16998;SDS011;10211;49.476;11.010;2023-05-14T00:34:40;11.33;;;7.40;;
16998;SDS011;10211;49.476;11.010;2023-05-14T00:37:07;10.37;;;7.37;;
16998;SDS011;10211;49.476;11.010;2023-05-14T00:39:35;8.43;;;7.53;;
16998;SDS011;10211;49.476;11.010;2023-05-14T00:42:01;8.37;;;6.63;;
16998;SDS011;10211;49.476;11.010;2023-05-14T00:44:28;9.70;;;7.47;;
16998;SDS011;10211;49.476;11.010;2023-05-14T00:46:55;10.00;;;7.90;;
16998;SDS011;10211;49.476;11.010;2023-05-14T00:49:22;7.97;;;6.87;;
16998;SDS011;10211;49.476;11.010;2023-05-14T00:51:49;9.43;;;7.87;;
16998;SDS011;10211;49.476;11.010;2023-05-14T00:54:16;9.10;;;7.80;;
16998;SDS011;10211;49.476;11.010;2023-05-14T00:56:46;9.73;;;7.70;;
16998;SDS011;10211;49.476;11.010;2023-05-14T00:59:13;8.57;;;7.60;;
16998;SDS011;10211;49.476;11.010;2023-05-14T01:01:40;10.00;;;8.00;;
16998;SDS011;10211;49.476;11.010;2023-05-14T01:04:07;8.37;;;7.50;;
16998;SDS011;10211;49.476;11.010;2023-05-14T01:06:36;9.17;;;8.27;;
16998;SDS011;10211;49.476;11.010;2023-05-14T01:09:21;9.03;;;7.13;;
16998;SDS011;10211;49.476;11.010;2023-05-14T01:11:54;8.10;;;7.30;;
16998;SDS011;10211;49.476;11.010;2023-05-14T01:14:27;9.90;;;8.57;;
16998;SDS011;10211;49.476;11.010;2023-05-14T01:17:01;9.77;;;7.03;;
16998;SDS011;10211;49.476;11.010;2023-05-14T01:19:32;9.20;;;7.70;;
16998;SDS011;10211;49.476;11.010;2023-05-14T01:22:06;9.90;;;8.70;;
16998;SDS011;10211;49.476;11.010;2023-05-14T01:24:32;10.17;;;8.30;;
16998;SDS011;10211;49.476;11.010;2023-05-14T01:27:00;10.73;;;8.87;;
16998;SDS011;10211;49.476;11.010;2023-05-14T01:29:33;11.60;;;9.77;;
16998;SDS011;10211;49.476;11.010;2023-05-14T01:32:04;10.07;;;8.47;;
16998;SDS011;10211;49.476;11.010;2023-05-14T01:34:33;11.20;;;8.90;;
16998;SDS011;10211;49.476;11.010;2023-05-14T01:37:01;10.17;;;8.87;;
16998;SDS011;10211;49.476;11.010;2023-05-14T01:39:30;10.47;;;8.47;;
16998;SDS011;10211;49.476;11.010;2023-05-14T01:41:58;11.67;;;8.50;;
16998;SDS011;10211;49.476;11.010;2023-05-14T01:44:25;10.47;;;8.87;;
16998;SDS011;10211;49.476;11.010;2023-05-14T01:46:52;9.73;;;8.43;;
16998;SDS011;10211;49.476;11.010;2023-05-14T01:49:19;8.63;;;7.73;;
16998;SDS011;10211;49.476;11.010;2023-05-14T01:51:46;9.20;;;8.30;;
16998;SDS011;10211;49.476;11.010;2023-05-14T01:54:13;9.17;;;8.10;;
16998;SDS011;10211;49.476;11.010;2023-05-14T01:56:41;11.53;;;8.50;;
16998;SDS011;10211;49.476;11.010;2023-05-14T01:59:08;9.33;;;8.17;;
16998;SDS011;10211;49.476;11.010;2023-05-14T02:01:35;11.07;;;8.60;;
16998;SDS011;10211;49.476;11.010;2023-05-14T02:04:02;8.20;;;7.23;;
16998;SDS011;10211;49.476;11.010;2023-05-14T02:06:29;8.83;;;7.50;;
16998;SDS011;10211;49.476;11.010;2023-05-14T02:08:57;8.27;;;7.47;;
16998;SDS011;10211;49.476;11.010;2023-05-14T02:11:24;8.17;;;7.27;;
16998;SDS011;10211;49.476;11.010;2023-05-14T02:13:52;7.90;;;7.07;;
16998;SDS011;10211;49.476;11.010;2023-05-14T02:16:18;7.80;;;7.00;;
16998;SDS011;10211;49.476;11.010;2023-05-14T02:18:45;7.23;;;6.57;;
16998;SDS011;10211;49.476;11.010;2023-05-14T02:21:12;12.03;;;6.70;;
16998;SDS011;10211;49.476;11.010;2023-05-14T02:23:38;9.87;;;6.87;;
16998;SDS011;10211;49.476;11.010;2023-05-14T02:26:05;8.33;;;7.17;;
16998;SDS011;10211;49.476;11.010;2023-05-14T02:28:33;7.50;;;6.80;;
16998;SDS011;10211;49.476;11.010;2023-05-14T02:31:01;7.83;;;7.00;;
16998;SDS011;10211;49.476;11.010;2023-05-14T02:33:28;8.13;;;6.83;;
16998;SDS011;10211;49.476;11.010;2023-05-14T02:35:55;7.30;;;6.60;;
16998;SDS011;10211;49.476;11.010;2023-05-14T02:38:21;8.53;;;6.70;;
16998;SDS011;10211;49.476;11.010;2023-05-14T02:40:48;8.23;;;6.73;;
16998;SDS011;10211;49.476;11.010;2023-05-14T02:43:15;8.30;;;6.60;;
16998;SDS011;10211;49.476;11.010;2023-05-14T02:45:41;10.37;;;6.20;;
16998;SDS011;10211;49.476;11.010;2023-05-14T02:48:09;7.37;;;6.47;;
16998;SDS011;10211;49.476;11.010;2023-05-14T02:50:36;6.13;;;5.53;;
16998;SDS011;10211;49.476;11.010;2023-05-14T02:53:03;7.20;;;5.67;;
16998;SDS011;10211;49.476;11.010;2023-05-14T02:55:30;6.33;;;5.70;;
16998;SDS011;10211;49.476;11.010;2023-05-14T02:57:56;5.97;;;5.37;;
16998;SDS011;10211;49.476;11.010;2023-05-14T03:00:23;5.90;;;5.30;;
16998;SDS011;10211;49.476;11.010;2023-05-14T03:02:50;6.67;;;6.00;;
16998;SDS011;10211;49.476;11.010;2023-05-14T03:05:19;6.57;;;5.87;;
16998;SDS011;10211;49.476;11.010;2023-05-14T03:07:46;7.30;;;6.43;;
16998;SDS011;10211;49.476;11.010;2023-05-14T03:10:13;6.67;;;5.80;;
16998;SDS011;10211;49.476;11.010;2023-05-14T03:12:39;6.37;;;5.70;;
16998;SDS011;10211;49.476;11.010;2023-05-14T03:15:07;7.60;;;5.93;;
16998;SDS011;10211;49.476;11.010;2023-05-14T03:17:34;8.00;;;6.27;;
16998;SDS011;10211;49.476;11.010;2023-05-14T03:20:01;9.10;;;6.73;;
16998;SDS011;10211;49.476;11.010;2023-05-14T03:22:29;6.77;;;6.07;;
16998;SDS011;10211;49.476;11.010;2023-05-14T03:24:56;7.13;;;6.43;;
16998;SDS011;10211;49.476;11.010;2023-05-14T03:27:23;6.47;;;5.70;;
16998;SDS011;10211;49.476;11.010;2023-05-14T03:29:50;6.60;;;5.90;;
16998;SDS011;10211;49.476;11.010;2023-05-14T03:32:16;7.37;;;6.10;;
16998;SDS011;10211;49.476;11.010;2023-05-14T03:34:43;9.57;;;6.20;;
16998;SDS011;10211;49.476;11.010;2023-05-14T03:37:10;7.53;;;6.23;;
16998;SDS011;10211;49.476;11.010;2023-05-14T03:39:38;9.83;;;6.37;;
16998;SDS011;10211;49.476;11.010;2023-05-14T03:42:05;7.10;;;6.40;;
16998;SDS011;10211;49.476;11.010;2023-05-14T03:44:32;8.00;;;6.13;;
16998;SDS011;10211;49.476;11.010;2023-05-14T03:46:58;7.03;;;6.00;;
16998;SDS011;10211;49.476;11.010;2023-05-14T03:49:25;7.80;;;6.67;;
16998;SDS011;10211;49.476;11.010;2023-05-14T03:51:52;7.83;;;7.03;;
16998;SDS011;10211;49.476;11.010;2023-05-14T03:54:18;8.67;;;6.97;;
16998;SDS011;10211;49.476;11.010;2023-05-14T03:56:47;8.43;;;6.60;;
16998;SDS011;10211;49.476;11.010;2023-05-14T03:59:13;8.17;;;7.37;;
16998;SDS011;10211;49.476;11.010;2023-05-14T04:01:40;8.80;;;7.17;;
16998;SDS011;10211;49.476;11.010;2023-05-14T04:04:07;8.67;;;7.60;;
16998;SDS011;10211;49.476;11.010;2023-05-14T04:06:33;9.87;;;7.90;;
16998;SDS011;10211;49.476;11.010;2023-05-14T04:09:01;7.80;;;6.53;;
16998;SDS011;10211;49.476;11.010;2023-05-14T04:11:28;9.47;;;7.77;;
16998;SDS011;10211;49.476;11.010;2023-05-14T04:13:56;8.80;;;6.60;;
16998;SDS011;10211;49.476;11.010;2023-05-14T04:16:23;6.77;;;5.73;;
16998;SDS011;10211;49.476;11.010;2023-05-14T04:18:49;9.93;;;7.33;;
16998;SDS011;10211;49.476;11.010;2023-05-14T04:21:16;6.50;;;5.90;;
16998;SDS011;10211;49.476;11.010;2023-05-14T04:23:43;7.13;;;6.43;;
16998;SDS011;10211;49.476;11.010;2023-05-14T04:26:09;6.63;;;5.93;;
16998;SDS011;10211;49.476;11.010;2023-05-14T04:28:36;6.50;;;5.90;;
16998;SDS011;10211;49.476;11.010;2023-05-14T04:31:04;6.67;;;6.07;;
16998;SDS011;10211;49.476;11.010;2023-05-14T04:33:31;7.40;;;6.07;;
16998;SDS011;10211;49.476;11.010;2023-05-14T04:35:58;5.70;;;5.10;;
16998;SDS011;10211;49.476;11.010;2023-05-14T04:38:25;6.07;;;5.47;;
16998;SDS011;10211;49.476;11.010;2023-05-14T04:40:52;6.80;;;6.13;;
16998;SDS011;10211;49.476;11.010;2023-05-14T04:43:18;7.67;;;6.60;;
16998;SDS011;10211;49.476;11.010;2023-05-14T04:45:45;6.53;;;5.97;;
16998;SDS011;10211;49.476;11.010;2023-05-14T04:48:13;6.93;;;6.23;;
16998;SDS011;10211;49.476;11.010;2023-05-14T04:50:40;6.80;;;5.83;;
16998;SDS011;10211;49.476;11.010;2023-05-14T04:53:08;7.00;;;6.23;;
16998;SDS011;10211;49.476;11.010;2023-05-14T04:55:35;6.57;;;5.80;;
16998;SDS011;10211;49.476;11.010;2023-05-14T04:58:02;6.03;;;5.47;;
16998;SDS011;10211;49.476;11.010;2023-05-14T05:00:29;5.67;;;5.17;;
16998;SDS011;10211;49.476;11.010;2023-05-14T05:02:56;6.93;;;5.93;;
16998;SDS011;10211;49.476;11.010;2023-05-14T05:05:24;7.53;;;5.63;;
16998;SDS011;10211;49.476;11.010;2023-05-14T05:07:50;6.87;;;6.27;;
16998;SDS011;10211;49.476;11.010;2023-05-14T05:10:17;6.33;;;4.93;;
16998;SDS011;10211;49.476;11.010;2023-05-14T05:12:44;7.40;;;5.03;;
16998;SDS011;10211;49.476;11.010;2023-05-14T05:15:10;5.53;;;4.90;;
16998;SDS011;10211;49.476;11.010;2023-05-14T05:17:37;6.70;;;5.37;;
16998;SDS011;10211;49.476;11.010;2023-05-14T05:20:05;5.97;;;4.97;;
16998;SDS011;10211;49.476;11.010;2023-05-14T05:22:35;5.47;;;4.97;;
16998;SDS011;10211;49.476;11.010;2023-05-14T05:25:02;7.07;;;5.60;;
16998;SDS011;10211;49.476;11.010;2023-05-14T05:27:30;5.57;;;4.93;;
16998;SDS011;10211;49.476;11.010;2023-05-14T05:29:57;5.23;;;4.63;;
16998;SDS011;10211;49.476;11.010;2023-05-14T05:32:23;5.67;;;5.07;;
16998;SDS011;10211;49.476;11.010;2023-05-14T05:34:50;9.47;;;5.07;;
16998;SDS011;10211;49.476;11.010;2023-05-14T05:37:17;5.40;;;4.90;;
16998;SDS011;10211;49.476;11.010;2023-05-14T05:39:45;4.70;;;4.30;;
16998;SDS011;10211;49.476;11.010;2023-05-14T05:42:12;4.60;;;4.10;;
16998;SDS011;10211;49.476;11.010;2023-05-14T05:44:39;4.80;;;4.00;;
16998;SDS011;10211;49.476;11.010;2023-05-14T05:47:06;5.20;;;3.97;;
16998;SDS011;10211;49.476;11.010;2023-05-14T05:49:32;5.93;;;4.30;;
16998;SDS011;10211;49.476;11.010;2023-05-14T05:52:00;9.90;;;4.17;;
16998;SDS011;10211;49.476;11.010;2023-05-14T05:54:28;4.37;;;3.77;;
16998;SDS011;10211;49.476;11.010;2023-05-14T05:56:57;4.83;;;4.20;;
16998;SDS011;10211;49.476;11.010;2023-05-14T05:59:24;4.07;;;3.73;;
16998;SDS011;10211;49.476;11.010;2023-05-14T06:01:51;4.80;;;3.77;;
16998;SDS011;10211;49.476;11.010;2023-05-14T06:04:18;4.80;;;3.77;;
16998;SDS011;10211;49.476;11.010;2023-05-14T06:06:44;6.33;;;3.90;;
16998;SDS011;10211;49.476;11.010;2023-05-14T06:09:11;3.73;;;3.43;;
16998;SDS011;10211;49.476;11.010;2023-05-14T06:11:38;5.77;;;3.80;;
16998;SDS011;10211;49.476;11.010;2023-05-14T06:14:06;4.80;;;4.17;;
16998;SDS011;10211;49.476;11.010;2023-05-14T06:16:32;8.00;;;3.93;;
16998;SDS011;10211;49.476;11.010;2023-05-14T06:18:59;6.20;;;4.27;;
16998;SDS011;10211;49.476;11.010;2023-05-14T06:21:26;5.73;;;3.90;;
16998;SDS011;10211;49.476;11.010;2023-05-14T06:23:53;4.83;;;4.00;;
16998;SDS011;10211;49.476;11.010;2023-05-14T06:26:19;5.10;;;4.40;;
16998;SDS011;10211;49.476;11.010;2023-05-14T06:28:46;5.13;;;3.67;;
16998;SDS011;10211;49.476;11.010;2023-05-14T06:31:14;6.40;;;4.60;;
16998;SDS011;10211;49.476;11.010;2023-05-14T06:33:41;5.73;;;4.67;;
16998;SDS011;10211;49.476;11.010;2023-05-14T06:36:08;4.93;;;4.27;;
16998;SDS011;10211;49.476;11.010;2023-05-14T06:38:35;4.77;;;3.67;;
16998;SDS011;10211;49.476;11.010;2023-05-14T06:41:02;7.80;;;5.23;;
16998;SDS011;10211;49.476;11.010;2023-05-14T06:43:29;4.07;;;3.43;;
16998;SDS011;10211;49.476;11.010;2023-05-14T06:45:56;5.73;;;4.60;;
16998;SDS011;10211;49.476;11.010;2023-05-14T06:48:24;4.87;;;3.87;;
16998;SDS011;10211;49.476;11.010;2023-05-14T06:50:53;5.37;;;3.90;;
16998;SDS011;10211;49.476;11.010;2023-05-14T06:53:20;3.63;;;3.30;;
16998;SDS011;10211;49.476;11.010;2023-05-14T06:55:47;4.53;;;3.87;;
16998;SDS011;10211;49.476;11.010;2023-05-14T06:58:14;4.10;;;3.70;;
16998;SDS011;10211;49.476;11.010;2023-05-14T07:00:40;5.97;;;3.90;;
16998;SDS011;10211;49.476;11.010;2023-05-14T07:03:07;4.30;;;3.73;;
16998;SDS011;10211;49.476;11.010;2023-05-14T07:05:35;3.83;;;3.53;;
16998;SDS011;10211;49.476;11.010;2023-05-14T07:08:02;3.97;;;3.43;;
16998;SDS011;10211;49.476;11.010;2023-05-14T07:10:29;4.03;;;3.33;;
16998;SDS011;10211;49.476;11.010;2023-05-14T07:12:56;4.73;;;3.90;;
16998;SDS011;10211;49.476;11.010;2023-05-14T07:15:23;5.43;;;3.90;;
16998;SDS011;10211;49.476;11.010;2023-05-14T07:17:50;4.13;;;3.23;;
16998;SDS011;10211;49.476;11.010;2023-05-14T07:20:16;4.93;;;3.47;;
16998;SDS011;10211;49.476;11.010;2023-05-14T07:22:44;5.90;;;3.97;;
16998;SDS011;10211;49.476;11.010;2023-05-14T07:25:11;4.70;;;3.83;;
16998;SDS011;10211;49.476;11.010;2023-05-14T07:27:38;3.87;;;3.50;;
16998;SDS011;10211;49.476;11.010;2023-05-14T07:30:05;4.10;;;3.70;;
16998;SDS011;10211;49.476;11.010;2023-05-14T07:32:33;4.50;;;4.10;;
16998;SDS011;10211;49.476;11.010;2023-05-14T07:34:59;5.53;;;3.97;;
16998;SDS011;10211;49.476;11.010;2023-05-14T07:37:26;3.73;;;3.43;;
16998;SDS011;10211;49.476;11.010;2023-05-14T07:39:54;4.00;;;3.70;;
16998;SDS011;10211;49.476;11.010;2023-05-14T07:42:21;3.53;;;3.23;;
16998;SDS011;10211;49.476;11.010;2023-05-14T07:44:48;4.07;;;3.50;;
16998;SDS011;10211;49.476;11.010;2023-05-14T07:47:15;4.23;;;3.70;;
16998;SDS011;10211;49.476;11.010;2023-05-14T07:49:41;4.20;;;3.80;;
16998;SDS011;10211;49.476;11.010;2023-05-14T07:52:08;3.83;;;3.53;;
16998;SDS011;10211;49.476;11.010;2023-05-14T07:54:35;3.87;;;3.57;;
16998;SDS011;10211;49.476;11.010;2023-05-14T07:57:03;3.67;;;3.37;;
16998;SDS011;10211;49.476;11.010;2023-05-14T07:59:30;5.40;;;3.67;;
16998;SDS011;10211;49.476;11.010;2023-05-14T08:01:57;3.53;;;3.23;;
16998;SDS011;10211;49.476;11.010;2023-05-14T08:04:24;4.70;;;3.53;;
16998;SDS011;10211;49.476;11.010;2023-05-14T08:06:51;4.63;;;3.80;;
16998;SDS011;10211;49.476;11.010;2023-05-14T08:09:17;3.70;;;3.30;;
16998;SDS011;10211;49.476;11.010;2023-05-14T08:11:44;3.60;;;3.30;;
16998;SDS011;10211;49.476;11.010;2023-05-14T08:14:12;4.33;;;3.80;;
16998;SDS011;10211;49.476;11.010;2023-05-14T08:16:39;4.03;;;3.40;;
16998;SDS011;10211;49.476;11.010;2023-05-14T08:19:05;4.93;;;3.40;;
16998;SDS011;10211;49.476;11.010;2023-05-14T08:21:32;5.20;;;3.80;;
16998;SDS011;10211;49.476;11.010;2023-05-14T08:23:59;3.83;;;3.53;;
16998;SDS011;10211;49.476;11.010;2023-05-14T08:26:26;6.83;;;3.60;;
16998;SDS011;10211;49.476;11.010;2023-05-14T08:28:52;4.00;;;3.60;;
16998;SDS011;10211;49.476;11.010;2023-05-14T08:31:20;4.03;;;3.67;;
16998;SDS011;10211;49.476;11.010;2023-05-14T08:33:47;3.73;;;3.37;;
16998;SDS011;10211;49.476;11.010;2023-05-14T08:36:14;3.97;;;3.50;;
16998;SDS011;10211;49.476;11.010;2023-05-14T08:38:41;5.00;;;3.30;;
16998;SDS011;10211;49.476;11.010;2023-05-14T08:41:09;4.47;;;4.07;;
16998;SDS011;10211;49.476;11.010;2023-05-14T08:43:40;3.90;;;3.57;;
16998;SDS011;10211;49.476;11.010;2023-05-14T08:46:11;6.43;;;4.23;;
16998;SDS011;10211;49.476;11.010;2023-05-14T08:48:41;5.33;;;3.90;;
16998;SDS011;10211;49.476;11.010;2023-05-14T08:51:11;7.97;;;4.07;;
16998;SDS011;10211;49.476;11.010;2023-05-14T08:53:38;4.57;;;3.53;;
16998;SDS011;10211;49.476;11.010;2023-05-14T08:56:05;5.17;;;3.30;;
16998;SDS011;10211;49.476;11.010;2023-05-14T08:58:33;4.53;;;3.77;;
16998;SDS011;10211;49.476;11.010;2023-05-14T09:01:00;3.70;;;3.37;;
16998;SDS011;10211;49.476;11.010;2023-05-14T09:03:26;4.13;;;3.80;;
16998;SDS011;10211;49.476;11.010;2023-05-14T09:05:56;3.33;;;3.03;;
16998;SDS011;10211;49.476;11.010;2023-05-14T09:08:24;4.53;;;3.63;;
16998;SDS011;10211;49.476;11.010;2023-05-14T09:10:50;3.73;;;3.43;;
16998;SDS011;10211;49.476;11.010;2023-05-14T09:13:17;4.17;;;3.50;;
16998;SDS011;10211;49.476;11.010;2023-05-14T09:15:44;4.83;;;3.70;;
16998;SDS011;10211;49.476;11.010;2023-05-14T09:18:12;5.10;;;3.87;;
16998;SDS011;10211;49.476;11.010;2023-05-14T09:20:39;3.67;;;3.37;;
16998;SDS011;10211;49.476;11.010;2023-05-14T09:23:07;4.43;;;4.03;;
16998;SDS011;10211;49.476;11.010;2023-05-14T09:25:34;3.67;;;3.37;;
16998;SDS011;10211;49.476;11.010;2023-05-14T09:28:04;4.63;;;3.60;;
16998;SDS011;10211;49.476;11.010;2023-05-14T09:30:32;4.20;;;3.40;;
16998;SDS011;10211;49.476;11.010;2023-05-14T09:33:01;4.03;;;3.50;;
16998;SDS011;10211;49.476;11.010;2023-05-14T09:35:29;4.40;;;3.73;;
16998;SDS011;10211;49.476;11.010;2023-05-14T09:37:56;4.27;;;3.87;;
16998;SDS011;10211;49.476;11.010;2023-05-14T09:40:24;4.37;;;3.27;;
16998;SDS011;10211;49.476;11.010;2023-05-14T09:42:51;4.17;;;3.13;;
16998;SDS011;10211;49.476;11.010;2023-05-14T09:45:17;3.93;;;3.10;;
16998;SDS011;10211;49.476;11.010;2023-05-14T09:47:44;3.83;;;3.40;;
16998;SDS011;10211;49.476;11.010;2023-05-14T09:50:11;3.67;;;3.10;;
16998;SDS011;10211;49.476;11.010;2023-05-14T09:52:38;3.23;;;2.53;;
16998;SDS011;10211;49.476;11.010;2023-05-14T09:55:08;3.73;;;3.00;;
16998;SDS011;10211;49.476;11.010;2023-05-14T09:57:36;4.07;;;2.87;;
16998;SDS011;10211;49.476;11.010;2023-05-14T10:00:03;3.63;;;3.33;;
16998;SDS011;10211;49.476;11.010;2023-05-14T10:02:33;4.43;;;3.00;;
16998;SDS011;10211;49.476;11.010;2023-05-14T10:05:03;3.42;;;3.13;;
16998;SDS011;10211;49.476;11.010;2023-05-14T10:07:32;3.17;;;2.95;;
16998;SDS011;10211;49.476;11.010;2023-05-14T10:10:05;4.90;;;2.78;;
16998;SDS011;10211;49.476;11.010;2023-05-14T10:12:33;2.50;;;2.30;;
16998;SDS011;10211;49.476;11.010;2023-05-14T10:15:05;3.92;;;2.92;;
16998;SDS011;10211;49.476;11.010;2023-05-14T10:17:39;3.35;;;2.75;;
16998;SDS011;10211;49.476;11.010;2023-05-14T10:20:08;2.88;;;2.67;;
16998;SDS011;10211;49.476;11.010;2023-05-14T10:22:40;2.90;;;2.70;;
16998;SDS011;10211;49.476;11.010;2023-05-14T10:25:07;3.03;;;2.75;;
16998;SDS011;10211;49.476;11.010;2023-05-14T10:27:34;2.42;;;2.22;;
16998;SDS011;10211;49.476;11.010;2023-05-14T10:30:04;4.50;;;2.50;;
16998;SDS011;10211;49.476;11.010;2023-05-14T10:32:35;3.38;;;3.08;;
16998;SDS011;10211;49.476;11.010;2023-05-14T10:35:08;3.05;;;2.70;;
16998;SDS011;10211;49.476;11.010;2023-05-14T10:37:41;2.38;;;2.17;;
16998;SDS011;10211;49.476;11.010;2023-05-14T10:40:10;2.88;;;2.58;;
16998;SDS011;10211;49.476;11.010;2023-05-14T10:42:38;2.90;;;2.63;;
16998;SDS011;10211;49.476;11.010;2023-05-14T10:45:09;2.92;;;2.70;;
16998;SDS011;10211;49.476;11.010;2023-05-14T10:47:37;2.60;;;2.40;;
16998;SDS011;10211;49.476;11.010;2023-05-14T10:50:07;6.70;;;2.55;;
16998;SDS011;10211;49.476;11.010;2023-05-14T10:52:37;3.20;;;2.38;;
16998;SDS011;10211;49.476;11.010;2023-05-14T10:55:05;2.53;;;2.33;;
16998;SDS011;10211;49.476;11.010;2023-05-14T10:57:34;2.30;;;2.03;;
16998;SDS011;10211;49.476;11.010;2023-05-14T11:00:04;2.58;;;2.38;;
16998;SDS011;10211;49.476;11.010;2023-05-14T11:02:35;2.55;;;2.35;;
16998;SDS011;10211;49.476;11.010;2023-05-14T11:05:04;2.90;;;2.50;;
16998;SDS011;10211;49.476;11.010;2023-05-14T11:07:32;2.78;;;2.58;;
16998;SDS011;10211;49.476;11.010;2023-05-14T11:10:02;2.05;;;1.95;;
16998;SDS011;10211;49.476;11.010;2023-05-14T11:12:30;2.50;;;2.30;;
16998;SDS011;10211;49.476;11.010;2023-05-14T11:14:57;3.20;;;2.17;;
16998;SDS011;10211;49.476;11.010;2023-05-14T11:17:26;2.97;;;2.78;;
16998;SDS011;10211;49.476;11.010;2023-05-14T11:19:55;3.92;;;2.45;;
16998;SDS011;10211;49.476;11.010;2023-05-14T11:22:23;2.58;;;2.30;;
16998;SDS011;10211;49.476;11.010;2023-05-14T11:24:50;2.65;;;2.25;;
16998;SDS011;10211;49.476;11.010;2023-05-14T11:27:17;2.80;;;2.60;;
16998;SDS011;10211;49.476;11.010;2023-05-14T11:29:45;3.38;;;2.65;;
16998;SDS011;10211;49.476;11.010;2023-05-14T11:32:13;2.53;;;2.30;;
16998;SDS011;10211;49.476;11.010;2023-05-14T11:34:41;3.13;;;2.50;;
16998;SDS011;10211;49.476;11.010;2023-05-14T11:37:11;3.15;;;2.30;;
16998;SDS011;10211;49.476;11.010;2023-05-14T11:39:39;3.30;;;2.22;;
16998;SDS011;10211;49.476;11.010;2023-05-14T11:42:13;2.47;;;2.28;;
16998;SDS011;10211;49.476;11.010;2023-05-14T11:44:41;2.60;;;2.40;;
16998;SDS011;10211;49.476;11.010;2023-05-14T11:47:08;2.78;;;2.38;;
16998;SDS011;10211;49.476;11.010;2023-05-14T11:49:36;2.42;;;2.22;;
16998;SDS011;10211;49.476;11.010;2023-05-14T11:52:03;2.72;;;2.30;;
16998;SDS011;10211;49.476;11.010;2023-05-14T11:54:33;2.97;;;2.67;;
16998;SDS011;10211;49.476;11.010;2023-05-14T11:57:01;3.22;;;2.85;;
16998;SDS011;10211;49.476;11.010;2023-05-14T11:59:34;4.40;;;2.50;;
16998;SDS011;10211;49.476;11.010;2023-05-14T12:02:01;2.75;;;2.47;;
16998;SDS011;10211;49.476;11.010;2023-05-14T12:04:28;2.33;;;2.13;;
16998;SDS011;10211;49.476;11.010;2023-05-14T12:06:57;2.80;;;2.60;;
16998;SDS011;10211;49.476;11.010;2023-05-14T12:09:24;2.60;;;2.40;;
16998;SDS011;10211;49.476;11.010;2023-05-14T12:11:53;3.10;;;2.80;;
16998;SDS011;10211;49.476;11.010;2023-05-14T12:14:20;3.40;;;2.33;;
16998;SDS011;10211;49.476;11.010;2023-05-14T12:16:48;2.43;;;2.23;;
16998;SDS011;10211;49.476;11.010;2023-05-14T12:19:15;2.40;;;2.20;;
16998;SDS011;10211;49.476;11.010;2023-05-14T12:21:44;2.60;;;2.20;;
16998;SDS011;10211;49.476;11.010;2023-05-14T12:24:12;2.93;;;2.63;;
16998;SDS011;10211;49.476;11.010;2023-05-14T12:26:42;2.90;;;2.53;;
16998;SDS011;10211;49.476;11.010;2023-05-14T12:29:11;2.77;;;2.33;;
16998;SDS011;10211;49.476;11.010;2023-05-14T12:31:43;2.33;;;2.13;;
16998;SDS011;10211;49.476;11.010;2023-05-14T12:34:11;2.47;;;2.27;;
16998;SDS011;10211;49.476;11.010;2023-05-14T12:36:38;2.90;;;1.80;;
16998;SDS011;10211;49.476;11.010;2023-05-14T12:39:05;2.60;;;2.40;;
16998;SDS011;10211;49.476;11.010;2023-05-14T12:41:32;2.93;;;2.23;;
16998;SDS011;10211;49.476;11.010;2023-05-14T12:43:59;2.73;;;2.50;;
16998;SDS011;10211;49.476;11.010;2023-05-14T12:46:29;4.23;;;2.47;;
16998;SDS011;10211;49.476;11.010;2023-05-14T12:48:56;2.40;;;2.20;;
16998;SDS011;10211;49.476;11.010;2023-05-14T12:51:23;2.43;;;2.20;;
16998;SDS011;10211;49.476;11.010;2023-05-14T12:53:50;2.50;;;2.30;;
16998;SDS011;10211;49.476;11.010;2023-05-14T12:56:18;2.97;;;2.50;;
16998;SDS011;10211;49.476;11.010;2023-05-14T12:58:45;3.70;;;2.43;;
16998;SDS011;10211;49.476;11.010;2023-05-14T13:01:12;2.33;;;2.13;;
16998;SDS011;10211;49.476;11.010;2023-05-14T13:03:40;2.87;;;2.30;;
16998;SDS011;10211;49.476;11.010;2023-05-14T13:06:07;2.83;;;2.53;;
16998;SDS011;10211;49.476;11.010;2023-05-14T13:08:34;2.77;;;2.57;;
16998;SDS011;10211;49.476;11.010;2023-05-14T13:11:00;2.73;;;2.50;;
16998;SDS011;10211;49.476;11.010;2023-05-14T13:13:27;2.63;;;2.43;;
16998;SDS011;10211;49.476;11.010;2023-05-14T13:15:54;2.60;;;2.20;;
16998;SDS011;10211;49.476;11.010;2023-05-14T13:18:21;5.97;;;2.40;;
16998;SDS011;10211;49.476;11.010;2023-05-14T13:20:50;2.38;;;2.03;;
16998;SDS011;10211;49.476;11.010;2023-05-14T13:23:17;2.97;;;2.35;;
16998;SDS011;10211;49.476;11.010;2023-05-14T13:25:44;2.65;;;1.88;;
16998;SDS011;10211;49.476;11.010;2023-05-14T13:28:11;2.92;;;2.65;;
16998;SDS011;10211;49.476;11.010;2023-05-14T13:30:37;3.25;;;2.50;;
16998;SDS011;10211;49.476;11.010;2023-05-14T13:33:04;2.17;;;2.00;;
16998;SDS011;10211;49.476;11.010;2023-05-14T13:35:31;2.28;;;2.00;;
16998;SDS011;10211;49.476;11.010;2023-05-14T13:37:59;2.00;;;1.88;;
16998;SDS011;10211;49.476;11.010;2023-05-14T13:40:27;2.63;;;2.40;;
16998;SDS011;10211;49.476;11.010;2023-05-14T13:42:53;1.95;;;1.85;;
16998;SDS011;10211;49.476;11.010;2023-05-14T13:45:20;2.17;;;2.03;;
16998;SDS011;10211;49.476;11.010;2023-05-14T13:47:47;2.85;;;1.98;;
16998;SDS011;10211;49.476;11.010;2023-05-14T13:50:13;1.73;;;1.63;;
16998;SDS011;10211;49.476;11.010;2023-05-14T13:52:40;4.30;;;2.10;;
16998;SDS011;10211;49.476;11.010;2023-05-14T13:55:08;2.47;;;2.28;;
16998;SDS011;10211;49.476;11.010;2023-05-14T13:57:35;2.13;;;1.92;;
16998;SDS011;10211;49.476;11.010;2023-05-14T14:00:04;2.25;;;2.05;;
16998;SDS011;10211;49.476;11.010;2023-05-14T14:02:32;2.20;;;2.00;;
16998;SDS011;10211;49.476;11.010;2023-05-14T14:04:58;2.97;;;1.70;;
16998;SDS011;10211;49.476;11.010;2023-05-14T14:07:25;3.30;;;2.25;;
16998;SDS011;10211;49.476;11.010;2023-05-14T14:09:51;2.55;;;1.88;;
16998;SDS011;10211;49.476;11.010;2023-05-14T14:12:19;1.83;;;1.67;;
16998;SDS011;10211;49.476;11.010;2023-05-14T14:14:46;2.60;;;2.40;;
16998;SDS011;10211;49.476;11.010;2023-05-14T14:17:13;3.08;;;2.60;;
16998;SDS011;10211;49.476;11.010;2023-05-14T14:19:39;2.25;;;2.05;;
16998;SDS011;10211;49.476;11.010;2023-05-14T14:22:06;2.67;;;2.00;;
16998;SDS011;10211;49.476;11.010;2023-05-14T14:24:33;2.33;;;1.92;;
16998;SDS011;10211;49.476;11.010;2023-05-14T14:27:00;3.70;;;2.35;;
16998;SDS011;10211;49.476;11.010;2023-05-14T14:29:28;2.10;;;1.90;;
16998;SDS011;10211;49.476;11.010;2023-05-14T14:31:55;2.72;;;2.00;;
16998;SDS011;10211;49.476;11.010;2023-05-14T14:34:22;2.10;;;1.80;;